sensor_id;sensor_type;location;lat;lon;timestamp;P1;durP1;ratioP1;P2;durP2;ratioP2
66667;SDS011;57205;51.438;-2.006;2023-05-07T00:00:00;21.25;;;10.18;;
66667;SDS011;57205;51.438;-2.006;2023-05-07T00:02:26;18.45;;;10.23;;
66667;SDS011;57205;51.438;-2.006;2023-05-07T00:04:51;23.00;;;10.02;;
66667;SDS011;57205;51.438;-2.006;2023-05-07T00:07:17;22.88;;;10.50;;
66667;SDS011;57205;51.438;-2.006;2023-05-07T00:09:42;19.00;;;10.70;;
66667;SDS011;57205;51.438;-2.006;2023-05-07T00:12:08;20.95;;;10.60;;
66667;SDS011;57205;51.438;-2.006;2023-05-07T00:14:33;19.98;;;9.90;;
66667;SDS011;57205;51.438;-2.006;2023-05-07T00:16:58;22.90;;;10.57;;
66667;SDS011;57205;51.438;-2.006;2023-05-07T00:19:24;24.27;;;11.15;;
66667;SDS011;57205;51.438;-2.006;2023-05-07T00:21:49;20.50;;;11.07;;
66667;SDS011;57205;51.438;-2.006;2023-05-07T00:24:15;28.40;;;10.85;;
66667;SDS011;57205;51.438;-2.006;2023-05-07T00:26:40;22.13;;;10.05;;
66667;SDS011;57205;51.438;-2.006;2023-05-07T00:29:05;17.95;;;9.82;;
66667;SDS011;57205;51.438;-2.006;2023-05-07T00:31:31;21.02;;;10.00;;
66667;SDS011;57205;51.438;-2.006;2023-05-07T00:33:56;20.55;;;10.50;;
66667;SDS011;57205;51.438;-2.006;2023-05-07T00:36:22;18.88;;;10.20;;
66667;SDS011;57205;51.438;-2.006;2023-05-07T00:38:47;24.05;;;10.32;;
66667;SDS011;57205;51.438;-2.006;2023-05-07T00:41:12;18.52;;;9.70;;
66667;SDS011;57205;51.438;-2.006;2023-05-07T00:43:38;23.15;;;10.18;;
66667;SDS011;57205;51.438;-2.006;2023-05-07T00:46:03;18.70;;;9.63;;
66667;SDS011;57205;51.438;-2.006;2023-05-07T00:48:28;22.08;;;10.90;;
66667;SDS011;57205;51.438;-2.006;2023-05-07T00:50:55;20.35;;;9.82;;
66667;SDS011;57205;51.438;-2.006;2023-05-07T00:53:21;20.48;;;9.77;;
66667;SDS011;57205;51.438;-2.006;2023-05-07T00:55:47;18.38;;;9.75;;
66667;SDS011;57205;51.438;-2.006;2023-05-07T00:58:13;18.33;;;9.25;;
66667;SDS011;57205;51.438;-2.006;2023-05-07T01:00:38;18.00;;;8.95;;
66667;SDS011;57205;51.438;-2.006;2023-05-07T01:03:04;16.35;;;9.10;;
66667;SDS011;57205;51.438;-2.006;2023-05-07T01:05:30;16.55;;;8.27;;
66667;SDS011;57205;51.438;-2.006;2023-05-07T01:07:55;13.30;;;8.30;;
66667;SDS011;57205;51.438;-2.006;2023-05-07T01:10:22;17.45;;;9.90;;
66667;SDS011;57205;51.438;-2.006;2023-05-07T01:12:48;14.85;;;8.43;;
66667;SDS011;57205;51.438;-2.006;2023-05-07T01:15:15;22.58;;;10.15;;
66667;SDS011;57205;51.438;-2.006;2023-05-07T01:17:41;16.67;;;8.52;;
66667;SDS011;57205;51.438;-2.006;2023-05-07T01:20:07;16.98;;;8.88;;
66667;SDS011;57205;51.438;-2.006;2023-05-07T01:22:35;15.38;;;9.07;;
66667;SDS011;57205;51.438;-2.006;2023-05-07T01:25:06;17.35;;;8.25;;
66667;SDS011;57205;51.438;-2.006;2023-05-07T01:27:35;16.70;;;7.93;;
66667;SDS011;57205;51.438;-2.006;2023-05-07T01:30:01;19.63;;;9.77;;
66667;SDS011;57205;51.438;-2.006;2023-05-07T01:32:41;18.85;;;9.15;;
66667;SDS011;57205;51.438;-2.006;2023-05-07T01:35:15;16.88;;;9.23;;
66667;SDS011;57205;51.438;-2.006;2023-05-07T01:37:44;16.00;;;8.57;;
66667;SDS011;57205;51.438;-2.006;2023-05-07T01:40:11;18.40;;;9.07;;
66667;SDS011;57205;51.438;-2.006;2023-05-07T01:42:36;21.60;;;10.13;;
66667;SDS011;57205;51.438;-2.006;2023-05-07T01:45:02;20.25;;;10.60;;
66667;SDS011;57205;51.438;-2.006;2023-05-07T01:47:28;20.17;;;10.57;;
66667;SDS011;57205;51.438;-2.006;2023-05-07T01:49:54;19.67;;;10.27;;
66667;SDS011;57205;51.438;-2.006;2023-05-07T01:52:20;21.00;;;10.52;;
66667;SDS011;57205;51.438;-2.006;2023-05-07T01:54:46;24.90;;;11.20;;
66667;SDS011;57205;51.438;-2.006;2023-05-07T01:57:11;23.10;;;10.90;;
66667;SDS011;57205;51.438;-2.006;2023-05-07T01:59:36;20.90;;;10.25;;
66667;SDS011;57205;51.438;-2.006;2023-05-07T02:02:02;21.30;;;10.85;;
66667;SDS011;57205;51.438;-2.006;2023-05-07T02:04:27;23.55;;;11.38;;
66667;SDS011;57205;51.438;-2.006;2023-05-07T02:06:52;22.52;;;11.32;;
66667;SDS011;57205;51.438;-2.006;2023-05-07T02:09:18;27.95;;;12.95;;
66667;SDS011;57205;51.438;-2.006;2023-05-07T02:11:43;25.80;;;12.43;;
66667;SDS011;57205;51.438;-2.006;2023-05-07T02:14:09;24.83;;;12.30;;
66667;SDS011;57205;51.438;-2.006;2023-05-07T02:16:35;21.67;;;11.38;;
66667;SDS011;57205;51.438;-2.006;2023-05-07T02:19:00;24.00;;;12.65;;
66667;SDS011;57205;51.438;-2.006;2023-05-07T02:21:25;28.27;;;13.20;;
66667;SDS011;57205;51.438;-2.006;2023-05-07T02:23:51;27.05;;;14.02;;
66667;SDS011;57205;51.438;-2.006;2023-05-07T02:26:16;23.05;;;12.43;;
66667;SDS011;57205;51.438;-2.006;2023-05-07T02:28:41;27.48;;;12.40;;
66667;SDS011;57205;51.438;-2.006;2023-05-07T02:31:07;30.48;;;12.60;;
66667;SDS011;57205;51.438;-2.006;2023-05-07T02:33:32;23.23;;;12.32;;
66667;SDS011;57205;51.438;-2.006;2023-05-07T02:36:09;24.25;;;12.98;;
66667;SDS011;57205;51.438;-2.006;2023-05-07T02:38:35;22.67;;;12.10;;
66667;SDS011;57205;51.438;-2.006;2023-05-07T02:41:00;25.98;;;13.38;;
66667;SDS011;57205;51.438;-2.006;2023-05-07T02:43:26;25.85;;;13.02;;
66667;SDS011;57205;51.438;-2.006;2023-05-07T02:46:10;31.75;;;13.70;;
66667;SDS011;57205;51.438;-2.006;2023-05-07T02:48:35;29.70;;;13.88;;
66667;SDS011;57205;51.438;-2.006;2023-05-07T02:51:01;32.38;;;13.25;;
66667;SDS011;57205;51.438;-2.006;2023-05-07T02:53:27;31.55;;;14.15;;
66667;SDS011;57205;51.438;-2.006;2023-05-07T02:55:56;26.80;;;13.70;;
66667;SDS011;57205;51.438;-2.006;2023-05-07T02:58:22;33.28;;;16.60;;
66667;SDS011;57205;51.438;-2.006;2023-05-07T03:00:48;27.48;;;14.05;;
66667;SDS011;57205;51.438;-2.006;2023-05-07T03:03:13;23.98;;;13.10;;
66667;SDS011;57205;51.438;-2.006;2023-05-07T03:05:39;23.90;;;12.05;;
66667;SDS011;57205;51.438;-2.006;2023-05-07T03:08:04;27.88;;;12.77;;
66667;SDS011;57205;51.438;-2.006;2023-05-07T03:10:30;25.33;;;12.73;;
66667;SDS011;57205;51.438;-2.006;2023-05-07T03:12:55;25.05;;;12.00;;
66667;SDS011;57205;51.438;-2.006;2023-05-07T03:15:21;21.33;;;11.57;;
66667;SDS011;57205;51.438;-2.006;2023-05-07T03:17:47;22.40;;;12.10;;
66667;SDS011;57205;51.438;-2.006;2023-05-07T03:20:12;22.05;;;12.85;;
66667;SDS011;57205;51.438;-2.006;2023-05-07T03:22:38;27.05;;;13.07;;
66667;SDS011;57205;51.438;-2.006;2023-05-07T03:25:04;23.15;;;12.27;;
66667;SDS011;57205;51.438;-2.006;2023-05-07T03:27:30;35.22;;;15.25;;
66667;SDS011;57205;51.438;-2.006;2023-05-07T03:29:56;23.92;;;12.18;;
66667;SDS011;57205;51.438;-2.006;2023-05-07T03:32:21;26.80;;;11.90;;
66667;SDS011;57205;51.438;-2.006;2023-05-07T03:34:46;28.42;;;12.02;;
66667;SDS011;57205;51.438;-2.006;2023-05-07T03:37:12;18.60;;;10.63;;
66667;SDS011;57205;51.438;-2.006;2023-05-07T03:39:37;20.48;;;10.60;;
66667;SDS011;57205;51.438;-2.006;2023-05-07T03:42:02;23.60;;;12.52;;
66667;SDS011;57205;51.438;-2.006;2023-05-07T03:44:28;21.58;;;11.77;;
66667;SDS011;57205;51.438;-2.006;2023-05-07T03:46:53;23.33;;;12.13;;
66667;SDS011;57205;51.438;-2.006;2023-05-07T03:49:20;24.38;;;11.80;;
66667;SDS011;57205;51.438;-2.006;2023-05-07T03:51:45;22.58;;;11.43;;
66667;SDS011;57205;51.438;-2.006;2023-05-07T03:54:11;23.25;;;12.52;;
66667;SDS011;57205;51.438;-2.006;2023-05-07T03:56:36;19.83;;;11.73;;
66667;SDS011;57205;51.438;-2.006;2023-05-07T03:59:01;24.10;;;12.45;;
66667;SDS011;57205;51.438;-2.006;2023-05-07T04:01:27;22.83;;;11.57;;
66667;SDS011;57205;51.438;-2.006;2023-05-07T04:03:52;21.80;;;11.85;;
66667;SDS011;57205;51.438;-2.006;2023-05-07T04:06:18;23.58;;;11.27;;
66667;SDS011;57205;51.438;-2.006;2023-05-07T04:08:43;25.73;;;12.20;;
66667;SDS011;57205;51.438;-2.006;2023-05-07T04:11:08;19.77;;;11.85;;
66667;SDS011;57205;51.438;-2.006;2023-05-07T04:13:34;24.83;;;12.20;;
66667;SDS011;57205;51.438;-2.006;2023-05-07T04:16:00;22.80;;;12.13;;
66667;SDS011;57205;51.438;-2.006;2023-05-07T04:18:27;23.40;;;11.82;;
66667;SDS011;57205;51.438;-2.006;2023-05-07T04:20:52;18.15;;;9.43;;
66667;SDS011;57205;51.438;-2.006;2023-05-07T04:23:18;21.42;;;9.85;;
66667;SDS011;57205;51.438;-2.006;2023-05-07T04:25:43;17.48;;;9.57;;
66667;SDS011;57205;51.438;-2.006;2023-05-07T04:28:08;20.25;;;9.52;;
66667;SDS011;57205;51.438;-2.006;2023-05-07T04:30:34;15.98;;;8.07;;
66667;SDS011;57205;51.438;-2.006;2023-05-07T04:32:59;18.63;;;9.65;;
66667;SDS011;57205;51.438;-2.006;2023-05-07T04:35:25;20.55;;;9.52;;
66667;SDS011;57205;51.438;-2.006;2023-05-07T04:37:50;17.58;;;8.90;;
66667;SDS011;57205;51.438;-2.006;2023-05-07T04:40:15;18.70;;;10.00;;
66667;SDS011;57205;51.438;-2.006;2023-05-07T04:42:41;20.35;;;9.25;;
66667;SDS011;57205;51.438;-2.006;2023-05-07T04:45:06;20.80;;;10.43;;
66667;SDS011;57205;51.438;-2.006;2023-05-07T04:47:33;19.88;;;9.95;;
66667;SDS011;57205;51.438;-2.006;2023-05-07T04:49:59;20.42;;;9.38;;
66667;SDS011;57205;51.438;-2.006;2023-05-07T04:52:24;18.77;;;10.18;;
66667;SDS011;57205;51.438;-2.006;2023-05-07T04:54:50;21.77;;;10.20;;
66667;SDS011;57205;51.438;-2.006;2023-05-07T04:57:15;18.33;;;9.65;;
66667;SDS011;57205;51.438;-2.006;2023-05-07T04:59:42;22.63;;;11.02;;
66667;SDS011;57205;51.438;-2.006;2023-05-07T05:02:08;20.98;;;12.00;;
66667;SDS011;57205;51.438;-2.006;2023-05-07T05:04:34;22.42;;;10.70;;
66667;SDS011;57205;51.438;-2.006;2023-05-07T05:07:00;22.10;;;10.65;;
66667;SDS011;57205;51.438;-2.006;2023-05-07T05:09:26;24.65;;;12.02;;
66667;SDS011;57205;51.438;-2.006;2023-05-07T05:11:51;19.65;;;11.15;;
66667;SDS011;57205;51.438;-2.006;2023-05-07T05:14:16;21.73;;;10.77;;
66667;SDS011;57205;51.438;-2.006;2023-05-07T05:16:42;20.35;;;10.15;;
66667;SDS011;57205;51.438;-2.006;2023-05-07T05:19:07;20.92;;;10.05;;
66667;SDS011;57205;51.438;-2.006;2023-05-07T05:21:32;20.98;;;10.63;;
66667;SDS011;57205;51.438;-2.006;2023-05-07T05:23:58;22.30;;;10.50;;
66667;SDS011;57205;51.438;-2.006;2023-05-07T05:26:23;22.00;;;10.82;;
66667;SDS011;57205;51.438;-2.006;2023-05-07T05:28:49;22.02;;;10.98;;
66667;SDS011;57205;51.438;-2.006;2023-05-07T05:31:15;21.02;;;10.35;;
66667;SDS011;57205;51.438;-2.006;2023-05-07T05:33:41;23.15;;;11.48;;
66667;SDS011;57205;51.438;-2.006;2023-05-07T05:36:08;23.20;;;10.68;;
66667;SDS011;57205;51.438;-2.006;2023-05-07T05:38:35;22.83;;;10.77;;
66667;SDS011;57205;51.438;-2.006;2023-05-07T05:41:00;20.90;;;11.02;;
66667;SDS011;57205;51.438;-2.006;2023-05-07T05:43:25;20.58;;;10.48;;
66667;SDS011;57205;51.438;-2.006;2023-05-07T05:45:51;26.20;;;12.65;;
66667;SDS011;57205;51.438;-2.006;2023-05-07T05:48:16;24.10;;;11.27;;
66667;SDS011;57205;51.438;-2.006;2023-05-07T05:50:42;24.02;;;12.45;;
66667;SDS011;57205;51.438;-2.006;2023-05-07T05:53:07;17.88;;;9.35;;
66667;SDS011;57205;51.438;-2.006;2023-05-07T05:55:33;19.35;;;9.82;;
66667;SDS011;57205;51.438;-2.006;2023-05-07T05:57:59;22.33;;;11.43;;
66667;SDS011;57205;51.438;-2.006;2023-05-07T06:00:25;20.73;;;10.85;;
66667;SDS011;57205;51.438;-2.006;2023-05-07T06:02:51;17.65;;;9.25;;
66667;SDS011;57205;51.438;-2.006;2023-05-07T06:05:17;23.92;;;10.43;;
66667;SDS011;57205;51.438;-2.006;2023-05-07T06:07:42;18.10;;;9.60;;
66667;SDS011;57205;51.438;-2.006;2023-05-07T06:10:07;18.90;;;9.15;;
66667;SDS011;57205;51.438;-2.006;2023-05-07T06:12:33;16.38;;;9.18;;
66667;SDS011;57205;51.438;-2.006;2023-05-07T06:14:58;18.20;;;9.30;;
66667;SDS011;57205;51.438;-2.006;2023-05-07T06:17:24;20.10;;;10.75;;
66667;SDS011;57205;51.438;-2.006;2023-05-07T06:19:49;19.45;;;9.98;;
66667;SDS011;57205;51.438;-2.006;2023-05-07T06:22:15;19.48;;;9.43;;
66667;SDS011;57205;51.438;-2.006;2023-05-07T06:24:40;22.02;;;9.98;;
66667;SDS011;57205;51.438;-2.006;2023-05-07T06:27:06;21.35;;;9.80;;
66667;SDS011;57205;51.438;-2.006;2023-05-07T06:29:31;23.95;;;9.60;;
66667;SDS011;57205;51.438;-2.006;2023-05-07T06:32:06;18.20;;;9.30;;
66667;SDS011;57205;51.438;-2.006;2023-05-07T06:34:32;17.60;;;9.90;;
66667;SDS011;57205;51.438;-2.006;2023-05-07T06:36:58;19.10;;;9.63;;
66667;SDS011;57205;51.438;-2.006;2023-05-07T06:39:23;18.90;;;10.05;;
66667;SDS011;57205;51.438;-2.006;2023-05-07T06:41:48;18.17;;;9.65;;
66667;SDS011;57205;51.438;-2.006;2023-05-07T06:44:14;18.88;;;9.13;;
66667;SDS011;57205;51.438;-2.006;2023-05-07T06:46:40;17.95;;;9.18;;
66667;SDS011;57205;51.438;-2.006;2023-05-07T06:49:05;16.23;;;8.20;;
66667;SDS011;57205;51.438;-2.006;2023-05-07T06:51:31;15.57;;;8.18;;
66667;SDS011;57205;51.438;-2.006;2023-05-07T06:53:58;15.68;;;8.18;;
66667;SDS011;57205;51.438;-2.006;2023-05-07T06:56:23;13.45;;;8.07;;
66667;SDS011;57205;51.438;-2.006;2023-05-07T06:58:49;13.52;;;7.43;;
66667;SDS011;57205;51.438;-2.006;2023-05-07T07:01:14;16.67;;;7.50;;
66667;SDS011;57205;51.438;-2.006;2023-05-07T07:03:40;17.52;;;7.82;;
66667;SDS011;57205;51.438;-2.006;2023-05-07T07:06:05;15.43;;;7.95;;
66667;SDS011;57205;51.438;-2.006;2023-05-07T07:08:31;14.02;;;8.77;;
66667;SDS011;57205;51.438;-2.006;2023-05-07T07:10:56;13.88;;;7.28;;
66667;SDS011;57205;51.438;-2.006;2023-05-07T07:13:22;19.13;;;7.50;;
66667;SDS011;57205;51.438;-2.006;2023-05-07T07:15:47;16.05;;;8.88;;
66667;SDS011;57205;51.438;-2.006;2023-05-07T07:18:13;13.90;;;7.78;;
66667;SDS011;57205;51.438;-2.006;2023-05-07T07:20:38;12.95;;;7.50;;
66667;SDS011;57205;51.438;-2.006;2023-05-07T07:23:04;15.15;;;7.43;;
66667;SDS011;57205;51.438;-2.006;2023-05-07T07:25:29;11.68;;;6.97;;
66667;SDS011;57205;51.438;-2.006;2023-05-07T07:27:55;15.77;;;6.85;;
66667;SDS011;57205;51.438;-2.006;2023-05-07T07:30:20;13.38;;;7.43;;
66667;SDS011;57205;51.438;-2.006;2023-05-07T07:32:46;15.18;;;6.72;;
66667;SDS011;57205;51.438;-2.006;2023-05-07T07:35:11;10.75;;;6.63;;
66667;SDS011;57205;51.438;-2.006;2023-05-07T07:37:36;10.75;;;6.53;;
66667;SDS011;57205;51.438;-2.006;2023-05-07T07:40:02;14.27;;;6.45;;
66667;SDS011;57205;51.438;-2.006;2023-05-07T07:42:28;12.75;;;6.32;;
66667;SDS011;57205;51.438;-2.006;2023-05-07T07:44:54;11.13;;;6.43;;
66667;SDS011;57205;51.438;-2.006;2023-05-07T07:47:22;12.88;;;6.68;;
66667;SDS011;57205;51.438;-2.006;2023-05-07T07:49:47;14.68;;;6.40;;
66667;SDS011;57205;51.438;-2.006;2023-05-07T07:52:13;13.27;;;7.22;;
66667;SDS011;57205;51.438;-2.006;2023-05-07T07:54:38;12.60;;;6.50;;
66667;SDS011;57205;51.438;-2.006;2023-05-07T07:57:03;14.40;;;8.52;;
66667;SDS011;57205;51.438;-2.006;2023-05-07T07:59:29;10.52;;;7.15;;
66667;SDS011;57205;51.438;-2.006;2023-05-07T08:01:54;14.13;;;7.00;;
66667;SDS011;57205;51.438;-2.006;2023-05-07T08:04:20;12.27;;;6.45;;
66667;SDS011;57205;51.438;-2.006;2023-05-07T08:06:46;10.23;;;5.72;;
66667;SDS011;57205;51.438;-2.006;2023-05-07T08:09:12;10.95;;;5.70;;
66667;SDS011;57205;51.438;-2.006;2023-05-07T08:11:38;9.77;;;5.55;;
66667;SDS011;57205;51.438;-2.006;2023-05-07T08:14:03;8.80;;;5.30;;
66667;SDS011;57205;51.438;-2.006;2023-05-07T08:16:30;10.15;;;5.15;;
66667;SDS011;57205;51.438;-2.006;2023-05-07T08:18:55;11.85;;;4.97;;
66667;SDS011;57205;51.438;-2.006;2023-05-07T08:21:21;9.95;;;5.70;;
66667;SDS011;57205;51.438;-2.006;2023-05-07T08:23:47;9.45;;;5.63;;
66667;SDS011;57205;51.438;-2.006;2023-05-07T08:26:12;9.25;;;5.28;;
66667;SDS011;57205;51.438;-2.006;2023-05-07T08:28:38;12.30;;;5.30;;
66667;SDS011;57205;51.438;-2.006;2023-05-07T08:31:04;10.75;;;5.28;;
66667;SDS011;57205;51.438;-2.006;2023-05-07T08:33:29;10.38;;;5.32;;
66667;SDS011;57205;51.438;-2.006;2023-05-07T08:35:55;8.52;;;5.32;;
66667;SDS011;57205;51.438;-2.006;2023-05-07T08:38:21;11.18;;;5.40;;
66667;SDS011;57205;51.438;-2.006;2023-05-07T08:40:46;11.88;;;6.88;;
66667;SDS011;57205;51.438;-2.006;2023-05-07T08:43:13;8.27;;;5.03;;
66667;SDS011;57205;51.438;-2.006;2023-05-07T08:45:39;12.30;;;5.53;;
66667;SDS011;57205;51.438;-2.006;2023-05-07T08:48:08;11.55;;;5.60;;
66667;SDS011;57205;51.438;-2.006;2023-05-07T08:50:39;14.55;;;6.32;;
66667;SDS011;57205;51.438;-2.006;2023-05-07T08:53:04;9.95;;;5.05;;
66667;SDS011;57205;51.438;-2.006;2023-05-07T08:55:30;13.20;;;5.47;;
66667;SDS011;57205;51.438;-2.006;2023-05-07T08:57:56;14.68;;;6.13;;
66667;SDS011;57205;51.438;-2.006;2023-05-07T09:00:21;14.75;;;6.30;;
66667;SDS011;57205;51.438;-2.006;2023-05-07T09:02:47;12.05;;;6.35;;
66667;SDS011;57205;51.438;-2.006;2023-05-07T09:05:12;12.15;;;6.32;;
66667;SDS011;57205;51.438;-2.006;2023-05-07T09:07:38;11.73;;;6.20;;
66667;SDS011;57205;51.438;-2.006;2023-05-07T09:10:04;11.10;;;6.60;;
66667;SDS011;57205;51.438;-2.006;2023-05-07T09:12:30;14.48;;;7.03;;
66667;SDS011;57205;51.438;-2.006;2023-05-07T09:14:56;16.00;;;7.78;;
66667;SDS011;57205;51.438;-2.006;2023-05-07T09:17:21;15.70;;;7.22;;
66667;SDS011;57205;51.438;-2.006;2023-05-07T09:19:47;14.93;;;6.75;;
66667;SDS011;57205;51.438;-2.006;2023-05-07T09:22:12;12.93;;;7.68;;
66667;SDS011;57205;51.438;-2.006;2023-05-07T09:24:38;12.52;;;6.40;;
66667;SDS011;57205;51.438;-2.006;2023-05-07T09:27:04;12.65;;;6.93;;
66667;SDS011;57205;51.438;-2.006;2023-05-07T09:29:30;15.85;;;8.40;;
66667;SDS011;57205;51.438;-2.006;2023-05-07T09:32:03;18.27;;;8.43;;
66667;SDS011;57205;51.438;-2.006;2023-05-07T09:34:31;16.95;;;8.05;;
66667;SDS011;57205;51.438;-2.006;2023-05-07T09:37:01;14.25;;;8.63;;
66667;SDS011;57205;51.438;-2.006;2023-05-07T09:39:38;22.38;;;8.50;;
66667;SDS011;57205;51.438;-2.006;2023-05-07T09:42:11;25.30;;;13.15;;
66667;SDS011;57205;51.438;-2.006;2023-05-07T09:44:37;15.13;;;8.27;;
66667;SDS011;57205;51.438;-2.006;2023-05-07T09:47:06;20.30;;;10.95;;
66667;SDS011;57205;51.438;-2.006;2023-05-07T09:49:36;14.23;;;6.82;;
66667;SDS011;57205;51.438;-2.006;2023-05-07T09:52:05;15.02;;;6.97;;
66667;SDS011;57205;51.438;-2.006;2023-05-07T09:54:33;17.13;;;8.27;;
66667;SDS011;57205;51.438;-2.006;2023-05-07T09:57:03;12.93;;;6.97;;
66667;SDS011;57205;51.438;-2.006;2023-05-07T09:59:31;10.20;;;5.40;;
66667;SDS011;57205;51.438;-2.006;2023-05-07T10:01:58;11.05;;;5.57;;
66667;SDS011;57205;51.438;-2.006;2023-05-07T10:04:25;12.20;;;6.05;;
66667;SDS011;57205;51.438;-2.006;2023-05-07T10:06:51;11.93;;;5.78;;
66667;SDS011;57205;51.438;-2.006;2023-05-07T10:09:17;13.70;;;6.00;;
66667;SDS011;57205;51.438;-2.006;2023-05-07T10:11:43;13.50;;;6.07;;
66667;SDS011;57205;51.438;-2.006;2023-05-07T10:14:09;12.27;;;5.57;;
66667;SDS011;57205;51.438;-2.006;2023-05-07T10:16:35;9.90;;;4.85;;
66667;SDS011;57205;51.438;-2.006;2023-05-07T10:19:04;9.38;;;4.72;;
66667;SDS011;57205;51.438;-2.006;2023-05-07T10:21:33;10.80;;;4.93;;
66667;SDS011;57205;51.438;-2.006;2023-05-07T10:26:35;8.65;;;4.57;;
66667;SDS011;57205;51.438;-2.006;2023-05-07T10:29:04;9.93;;;4.47;;
66667;SDS011;57205;51.438;-2.006;2023-05-07T10:31:44;10.68;;;4.43;;
66667;SDS011;57205;51.438;-2.006;2023-05-07T10:34:29;10.93;;;5.05;;
66667;SDS011;57205;51.438;-2.006;2023-05-07T10:36:59;10.25;;;5.05;;
66667;SDS011;57205;51.438;-2.006;2023-05-07T10:39:25;12.77;;;4.35;;
66667;SDS011;57205;51.438;-2.006;2023-05-07T10:41:52;8.90;;;4.35;;
66667;SDS011;57205;51.438;-2.006;2023-05-07T10:44:27;7.57;;;4.05;;
66667;SDS011;57205;51.438;-2.006;2023-05-07T10:47:06;10.75;;;4.32;;
66667;SDS011;57205;51.438;-2.006;2023-05-07T10:49:37;10.48;;;5.15;;
66667;SDS011;57205;51.438;-2.006;2023-05-07T10:52:15;11.80;;;4.97;;
66667;SDS011;57205;51.438;-2.006;2023-05-07T10:54:43;9.18;;;4.63;;
66667;SDS011;57205;51.438;-2.006;2023-05-07T10:59:56;12.43;;;4.85;;
66667;SDS011;57205;51.438;-2.006;2023-05-07T11:02:21;11.00;;;4.85;;
66667;SDS011;57205;51.438;-2.006;2023-05-07T11:05:29;9.50;;;4.63;;
66667;SDS011;57205;51.438;-2.006;2023-05-07T11:07:44;8.50;;;4.22;;
66667;SDS011;57205;51.438;-2.006;2023-05-07T11:10:19;6.20;;;3.45;;
66667;SDS011;57205;51.438;-2.006;2023-05-07T11:15:11;8.88;;;3.72;;
66667;SDS011;57205;51.438;-2.006;2023-05-07T11:17:53;17.75;;;8.52;;
66667;SDS011;57205;51.438;-2.006;2023-05-07T11:20:20;7.23;;;3.60;;
66667;SDS011;57205;51.438;-2.006;2023-05-07T11:23:08;8.43;;;3.38;;
66667;SDS011;57205;51.438;-2.006;2023-05-07T11:25:58;12.77;;;4.35;;
66667;SDS011;57205;51.438;-2.006;2023-05-07T11:28:42;9.07;;;3.88;;
66667;SDS011;57205;51.438;-2.006;2023-05-07T11:31:09;12.48;;;4.20;;
66667;SDS011;57205;51.438;-2.006;2023-05-07T11:33:35;8.52;;;4.00;;
66667;SDS011;57205;51.438;-2.006;2023-05-07T11:36:02;8.80;;;4.15;;
66667;SDS011;57205;51.438;-2.006;2023-05-07T11:38:29;10.23;;;4.13;;
66667;SDS011;57205;51.438;-2.006;2023-05-07T11:40:56;8.13;;;4.10;;
66667;SDS011;57205;51.438;-2.006;2023-05-07T11:43:22;14.13;;;6.25;;
66667;SDS011;57205;51.438;-2.006;2023-05-07T11:45:48;10.40;;;4.85;;
66667;SDS011;57205;51.438;-2.006;2023-05-07T11:48:14;10.73;;;6.60;;
66667;SDS011;57205;51.438;-2.006;2023-05-07T11:53:38;13.88;;;7.80;;
66667;SDS011;57205;51.438;-2.006;2023-05-07T11:56:08;10.95;;;7.40;;
66667;SDS011;57205;51.438;-2.006;2023-05-07T11:58:35;14.40;;;9.23;;
66667;SDS011;57205;51.438;-2.006;2023-05-07T12:01:00;12.73;;;7.72;;
66667;SDS011;57205;51.438;-2.006;2023-05-07T12:03:26;14.88;;;9.43;;
66667;SDS011;57205;51.438;-2.006;2023-05-07T12:05:51;13.57;;;8.10;;
66667;SDS011;57205;51.438;-2.006;2023-05-07T12:08:17;14.50;;;9.02;;
66667;SDS011;57205;51.438;-2.006;2023-05-07T12:10:44;14.45;;;8.55;;
66667;SDS011;57205;51.438;-2.006;2023-05-07T12:15:45;13.98;;;7.43;;
66667;SDS011;57205;51.438;-2.006;2023-05-07T12:18:11;14.63;;;8.07;;
66667;SDS011;57205;51.438;-2.006;2023-05-07T12:20:37;17.48;;;9.23;;
66667;SDS011;57205;51.438;-2.006;2023-05-07T12:23:04;21.83;;;11.98;;
66667;SDS011;57205;51.438;-2.006;2023-05-07T12:25:38;15.63;;;7.80;;
66667;SDS011;57205;51.438;-2.006;2023-05-07T12:28:05;16.02;;;8.55;;
66667;SDS011;57205;51.438;-2.006;2023-05-07T12:30:38;13.10;;;7.80;;
66667;SDS011;57205;51.438;-2.006;2023-05-07T12:33:04;17.92;;;11.50;;
66667;SDS011;57205;51.438;-2.006;2023-05-07T12:35:30;15.20;;;9.50;;
66667;SDS011;57205;51.438;-2.006;2023-05-07T12:37:56;14.70;;;8.63;;
66667;SDS011;57205;51.438;-2.006;2023-05-07T12:40:24;29.92;;;18.63;;
66667;SDS011;57205;51.438;-2.006;2023-05-07T12:43:00;13.90;;;8.27;;
66667;SDS011;57205;51.438;-2.006;2023-05-07T12:45:26;17.13;;;8.05;;
66667;SDS011;57205;51.438;-2.006;2023-05-07T12:47:51;16.00;;;8.52;;
66667;SDS011;57205;51.438;-2.006;2023-05-07T12:50:17;11.27;;;7.05;;
66667;SDS011;57205;51.438;-2.006;2023-05-07T12:52:43;13.10;;;7.00;;
66667;SDS011;57205;51.438;-2.006;2023-05-07T12:55:12;13.60;;;7.57;;
66667;SDS011;57205;51.438;-2.006;2023-05-07T12:57:42;14.57;;;8.02;;
66667;SDS011;57205;51.438;-2.006;2023-05-07T13:00:10;14.43;;;7.53;;
66667;SDS011;57205;51.438;-2.006;2023-05-07T13:02:39;11.18;;;7.55;;
66667;SDS011;57205;51.438;-2.006;2023-05-07T13:05:09;14.15;;;6.50;;
66667;SDS011;57205;51.438;-2.006;2023-05-07T13:07:35;13.90;;;8.02;;
66667;SDS011;57205;51.438;-2.006;2023-05-07T13:10:02;12.32;;;7.60;;
66667;SDS011;57205;51.438;-2.006;2023-05-07T13:12:28;12.30;;;6.47;;
66667;SDS011;57205;51.438;-2.006;2023-05-07T13:14:53;13.75;;;6.82;;
66667;SDS011;57205;51.438;-2.006;2023-05-07T13:17:18;10.38;;;5.65;;
66667;SDS011;57205;51.438;-2.006;2023-05-07T13:19:44;22.92;;;15.73;;
66667;SDS011;57205;51.438;-2.006;2023-05-07T13:22:09;12.57;;;5.63;;
66667;SDS011;57205;51.438;-2.006;2023-05-07T13:24:35;8.18;;;3.92;;
66667;SDS011;57205;51.438;-2.006;2023-05-07T13:27:01;10.40;;;4.15;;
66667;SDS011;57205;51.438;-2.006;2023-05-07T13:29:26;9.73;;;4.43;;
66667;SDS011;57205;51.438;-2.006;2023-05-07T13:31:58;9.10;;;3.60;;
66667;SDS011;57205;51.438;-2.006;2023-05-07T13:34:24;8.40;;;4.38;;
66667;SDS011;57205;51.438;-2.006;2023-05-07T13:36:50;8.07;;;3.83;;
66667;SDS011;57205;51.438;-2.006;2023-05-07T13:39:15;5.43;;;3.08;;
66667;SDS011;57205;51.438;-2.006;2023-05-07T13:41:41;7.88;;;3.20;;
66667;SDS011;57205;51.438;-2.006;2023-05-07T13:44:06;9.52;;;3.47;;
66667;SDS011;57205;51.438;-2.006;2023-05-07T13:46:32;7.20;;;3.50;;
66667;SDS011;57205;51.438;-2.006;2023-05-07T13:48:57;7.35;;;4.30;;
66667;SDS011;57205;51.438;-2.006;2023-05-07T13:51:23;12.43;;;4.53;;
66667;SDS011;57205;51.438;-2.006;2023-05-07T13:53:48;9.10;;;4.60;;
66667;SDS011;57205;51.438;-2.006;2023-05-07T13:56:14;7.65;;;3.10;;
66667;SDS011;57205;51.438;-2.006;2023-05-07T13:58:39;9.40;;;3.72;;
66667;SDS011;57205;51.438;-2.006;2023-05-07T14:01:05;8.65;;;3.95;;
66667;SDS011;57205;51.438;-2.006;2023-05-07T14:03:31;7.10;;;3.53;;
66667;SDS011;57205;51.438;-2.006;2023-05-07T14:06:00;6.85;;;3.63;;
66667;SDS011;57205;51.438;-2.006;2023-05-07T14:08:26;7.70;;;4.28;;
66667;SDS011;57205;51.438;-2.006;2023-05-07T14:10:52;6.85;;;3.33;;
66667;SDS011;57205;51.438;-2.006;2023-05-07T14:13:18;7.03;;;3.83;;
66667;SDS011;57205;51.438;-2.006;2023-05-07T14:15:43;8.25;;;4.60;;
66667;SDS011;57205;51.438;-2.006;2023-05-07T14:18:11;9.05;;;4.18;;
66667;SDS011;57205;51.438;-2.006;2023-05-07T14:20:40;7.88;;;4.53;;
66667;SDS011;57205;51.438;-2.006;2023-05-07T14:23:05;8.15;;;4.30;;
66667;SDS011;57205;51.438;-2.006;2023-05-07T14:25:31;9.63;;;4.97;;
66667;SDS011;57205;51.438;-2.006;2023-05-07T14:27:57;9.38;;;5.25;;